sensor_id;sensor_type;location;lat;lon;timestamp;pressure;altitude;pressure_sealevel;temperature;humidity
69153;BME280;56261;51.580;4.578;2023-03-23T00:01:47;100283.91;;;12.54;100.00
69153;BME280;56261;51.580;4.578;2023-03-23T00:04:16;100311.09;;;12.29;100.00
69153;BME280;56261;51.580;4.578;2023-03-23T00:06:42;100323.75;;;12.42;100.00
69153;BME280;56261;51.580;4.578;2023-03-23T00:09:08;100317.66;;;12.27;100.00
69153;BME280;56261;51.580;4.578;2023-03-23T00:11:33;100329.56;;;12.24;100.00
69153;BME280;56261;51.580;4.578;2023-03-23T00:14:00;100318.47;;;12.27;100.00
69153;BME280;56261;51.580;4.578;2023-03-23T00:16:28;100299.94;;;12.25;100.00
69153;BME280;56261;51.580;4.578;2023-03-23T00:18:57;100300.84;;;12.33;100.00
69153;BME280;56261;51.580;4.578;2023-03-23T00:21:24;100296.72;;;12.30;100.00
69153;BME280;56261;51.580;4.578;2023-03-23T00:23:53;100294.66;;;12.32;100.00
69153;BME280;56261;51.580;4.578;2023-03-23T00:26:18;100288.47;;;12.32;100.00
69153;BME280;56261;51.580;4.578;2023-03-23T00:28:45;100280.69;;;12.37;100.00
69153;BME280;56261;51.580;4.578;2023-03-23T00:31:12;100285.00;;;12.31;100.00
69153;BME280;56261;51.580;4.578;2023-03-23T00:33:38;100285.13;;;12.23;100.00
69153;BME280;56261;51.580;4.578;2023-03-23T00:36:07;100267.03;;;12.25;100.00
69153;BME280;56261;51.580;4.578;2023-03-23T00:38:34;100275.97;;;12.39;100.00
69153;BME280;56261;51.580;4.578;2023-03-23T00:40:59;100286.03;;;12.30;100.00
69153;BME280;56261;51.580;4.578;2023-03-23T00:43:28;100293.41;;;12.28;100.00
69153;BME280;56261;51.580;4.578;2023-03-23T00:45:54;100284.53;;;12.28;100.00
69153;BME280;56261;51.580;4.578;2023-03-23T00:48:21;100293.19;;;12.30;100.00
69153;BME280;56261;51.580;4.578;2023-03-23T00:50:47;100293.88;;;12.38;100.00
69153;BME280;56261;51.580;4.578;2023-03-23T00:53:13;100286.41;;;12.27;100.00
69153;BME280;56261;51.580;4.578;2023-03-23T00:55:43;100303.94;;;12.36;100.00
69153;BME280;56261;51.580;4.578;2023-03-23T00:58:09;100295.47;;;12.26;100.00
69153;BME280;56261;51.580;4.578;2023-03-23T01:00:35;100274.94;;;12.33;100.00
69153;BME280;56261;51.580;4.578;2023-03-23T01:03:01;100283.31;;;12.23;100.00
69153;BME280;56261;51.580;4.578;2023-03-23T01:05:26;100264.00;;;12.28;100.00
69153;BME280;56261;51.580;4.578;2023-03-23T01:07:57;100291.56;;;12.29;100.00
69153;BME280;56261;51.580;4.578;2023-03-23T01:10:23;100249.47;;;12.37;100.00
69153;BME280;56261;51.580;4.578;2023-03-23T01:12:52;100253.31;;;12.28;100.00
69153;BME280;56261;51.580;4.578;2023-03-23T01:15:18;100262.78;;;12.31;100.00
69153;BME280;56261;51.580;4.578;2023-03-23T01:17:44;100261.75;;;12.32;100.00
69153;BME280;56261;51.580;4.578;2023-03-23T01:20:11;100273.66;;;12.29;100.00
69153;BME280;56261;51.580;4.578;2023-03-23T01:22:38;100250.47;;;12.36;100.00
69153;BME280;56261;51.580;4.578;2023-03-23T01:25:05;100244.69;;;12.33;100.00
69153;BME280;56261;51.580;4.578;2023-03-23T01:27:31;100231.16;;;12.41;100.00
69153;BME280;56261;51.580;4.578;2023-03-23T01:29:56;100232.19;;;12.40;100.00
69153;BME280;56261;51.580;4.578;2023-03-23T01:32:22;100232.81;;;12.42;100.00
69153;BME280;56261;51.580;4.578;2023-03-23T01:34:47;100236.31;;;12.42;100.00
69153;BME280;56261;51.580;4.578;2023-03-23T01:37:12;100251.53;;;12.42;100.00
69153;BME280;56261;51.580;4.578;2023-03-23T01:39:38;100242.44;;;12.36;100.00
69153;BME280;56261;51.580;4.578;2023-03-23T01:42:04;100236.47;;;12.34;100.00
69153;BME280;56261;51.580;4.578;2023-03-23T01:46:55;100233.28;;;12.52;100.00
69153;BME280;56261;51.580;4.578;2023-03-23T01:49:43;100215.69;;;12.36;100.00
69153;BME280;56261;51.580;4.578;2023-03-23T01:52:16;100218.53;;;12.28;100.00
69153;BME280;56261;51.580;4.578;2023-03-23T01:54:47;100218.16;;;12.31;100.00
69153;BME280;56261;51.580;4.578;2023-03-23T01:57:18;100221.84;;;12.30;100.00
69153;BME280;56261;51.580;4.578;2023-03-23T01:59:47;100208.06;;;12.33;100.00
69153;BME280;56261;51.580;4.578;2023-03-23T02:02:14;100222.09;;;12.35;100.00
69153;BME280;56261;51.580;4.578;2023-03-23T02:04:41;100226.59;;;12.35;100.00
69153;BME280;56261;51.580;4.578;2023-03-23T02:07:07;100219.41;;;12.35;100.00
69153;BME280;56261;51.580;4.578;2023-03-23T02:09:33;100234.41;;;12.36;100.00
69153;BME280;56261;51.580;4.578;2023-03-23T02:11:59;100224.53;;;12.37;100.00
69153;BME280;56261;51.580;4.578;2023-03-23T02:14:26;100232.19;;;12.40;100.00
69153;BME280;56261;51.580;4.578;2023-03-23T02:17:11;100243.47;;;12.35;100.00
69153;BME280;56261;51.580;4.578;2023-03-23T02:33:44;100222.13;;;12.42;100.00
69153;BME280;56261;51.580;4.578;2023-03-23T02:36:23;100221.44;;;12.33;100.00
69153;BME280;56261;51.580;4.578;2023-03-23T02:38:58;100219.19;;;12.30;100.00
69153;BME280;56261;51.580;4.578;2023-03-23T02:41:32;100211.56;;;12.34;100.00
69153;BME280;56261;51.580;4.578;2023-03-23T02:44:01;100225.13;;;12.32;100.00
69153;BME280;56261;51.580;4.578;2023-03-23T02:46:28;100219.59;;;12.34;100.00
69153;BME280;56261;51.580;4.578;2023-03-23T02:48:55;100217.38;;;12.37;100.00
69153;BME280;56261;51.580;4.578;2023-03-23T02:51:23;100217.78;;;12.41;100.00
69153;BME280;56261;51.580;4.578;2023-03-23T02:53:51;100218.81;;;12.40;100.00
69153;BME280;56261;51.580;4.578;2023-03-23T02:56:18;100204.41;;;12.41;100.00
69153;BME280;56261;51.580;4.578;2023-03-23T02:58:46;100222.72;;;12.37;100.00
69153;BME280;56261;51.580;4.578;2023-03-23T03:04:22;100205.81;;;12.37;100.00
69153;BME280;56261;51.580;4.578;2023-03-23T03:06:55;100214.69;;;12.37;100.00
69153;BME280;56261;51.580;4.578;2023-03-23T03:09:55;100207.06;;;12.41;100.00
69153;BME280;56261;51.580;4.578;2023-03-23T03:17:31;100222.09;;;12.35;100.00
69153;BME280;56261;51.580;4.578;2023-03-23T03:20:00;100226.38;;;12.36;100.00
69153;BME280;56261;51.580;4.578;2023-03-23T03:22:33;100218.78;;;12.33;100.00
69153;BME280;56261;51.580;4.578;2023-03-23T03:25:03;100225.38;;;12.37;100.00
69153;BME280;56261;51.580;4.578;2023-03-23T03:27:30;100223.91;;;12.28;100.00
69153;BME280;56261;51.580;4.578;2023-03-23T03:29:59;100219.41;;;12.35;100.00
69153;BME280;56261;51.580;4.578;2023-03-23T03:32:32;100216.91;;;12.34;100.00
69153;BME280;56261;51.580;4.578;2023-03-23T03:35:02;100210.97;;;12.38;100.00
69153;BME280;56261;51.580;4.578;2023-03-23T03:37:33;100204.78;;;12.31;100.00
69153;BME280;56261;51.580;4.578;2023-03-23T03:40:03;100219.19;;;12.37;100.00
69153;BME280;56261;51.580;4.578;2023-03-23T03:42:30;100220.19;;;12.29;100.00
69153;BME280;56261;51.580;4.578;2023-03-23T03:44:55;100208.50;;;12.37;100.00
69153;BME280;56261;51.580;4.578;2023-03-23T03:47:20;100218.59;;;12.35;100.00
69153;BME280;56261;51.580;4.578;2023-03-23T03:49:46;100222.41;;;12.25;100.00
69153;BME280;56261;51.580;4.578;2023-03-23T03:52:11;100230.84;;;12.22;100.00
69153;BME280;56261;51.580;4.578;2023-03-23T03:54:37;100229.66;;;12.32;100.00
69153;BME280;56261;51.580;4.578;2023-03-23T03:57:02;100241.38;;;12.31;100.00
69153;BME280;56261;51.580;4.578;2023-03-23T03:59:27;100245.88;;;12.23;100.00
69153;BME280;56261;51.580;4.578;2023-03-23T04:01:53;100243.44;;;12.29;100.00
69153;BME280;56261;51.580;4.578;2023-03-23T04:04:20;100242.34;;;12.23;100.00
69153;BME280;56261;51.580;4.578;2023-03-23T04:06:47;100245.59;;;12.18;100.00
69153;BME280;56261;51.580;4.578;2023-03-23T04:09:14;100244.78;;;12.18;100.00
69153;BME280;56261;51.580;4.578;2023-03-23T04:11:39;100259.84;;;12.25;100.00
69153;BME280;56261;51.580;4.578;2023-03-23T04:14:05;100246.53;;;12.32;100.00
69153;BME280;56261;51.580;4.578;2023-03-23T04:16:31;100250.19;;;12.24;100.00
69153;BME280;56261;51.580;4.578;2023-03-23T04:18:59;100255.13;;;12.28;100.00
69153;BME280;56261;51.580;4.578;2023-03-23T04:21:25;100242.34;;;12.23;100.00
69153;BME280;56261;51.580;4.578;2023-03-23T04:23:57;100245.66;;;12.25;100.00
69153;BME280;56261;51.580;4.578;2023-03-23T04:26:27;100249.94;;;12.19;100.00
69153;BME280;56261;51.580;4.578;2023-03-23T04:28:54;100254.66;;;12.17;100.00
69153;BME280;56261;51.580;4.578;2023-03-23T04:31:20;100245.66;;;12.25;100.00
69153;BME280;56261;51.580;4.578;2023-03-23T04:33:50;100235.09;;;12.10;100.00
69153;BME280;56261;51.580;4.578;2023-03-23T04:36:18;100251.13;;;12.10;100.00
69153;BME280;56261;51.580;4.578;2023-03-23T04:38:45;100248.00;;;12.07;100.00
69153;BME280;56261;51.580;4.578;2023-03-23T04:41:10;100243.94;;;12.11;100.00
69153;BME280;56261;51.580;4.578;2023-03-23T04:43:36;100252.38;;;12.14;100.00
69153;BME280;56261;51.580;4.578;2023-03-23T04:46:07;100261.81;;;12.10;100.00
69153;BME280;56261;51.580;4.578;2023-03-23T04:48:34;100261.19;;;12.08;100.00
69153;BME280;56261;51.580;4.578;2023-03-23T04:51:03;100262.06;;;12.15;100.00
69153;BME280;56261;51.580;4.578;2023-03-23T04:53:32;100252.19;;;12.16;100.00
69153;BME280;56261;51.580;4.578;2023-03-23T04:55:58;100246.53;;;12.04;100.00
69153;BME280;56261;51.580;4.578;2023-03-23T04:58:23;100256.59;;;12.02;100.00
69153;BME280;56261;51.580;4.578;2023-03-23T05:00:50;100255.19;;;12.06;100.00
69153;BME280;56261;51.580;4.578;2023-03-23T05:03:17;100255.97;;;12.00;100.00
69153;BME280;56261;51.580;4.578;2023-03-23T05:05:43;100257.81;;;11.99;100.00
69153;BME280;56261;51.580;4.578;2023-03-23T05:08:14;100245.91;;;12.02;100.00
69153;BME280;56261;51.580;4.578;2023-03-23T05:10:40;100244.81;;;11.96;100.00
69153;BME280;56261;51.580;4.578;2023-03-23T05:13:05;100255.91;;;11.93;100.00
69153;BME280;56261;51.580;4.578;2023-03-23T05:15:31;100249.34;;;11.96;100.00
69153;BME280;56261;51.580;4.578;2023-03-23T05:17:56;100267.88;;;11.97;100.00
69153;BME280;56261;51.580;4.578;2023-03-23T05:20:22;100267.25;;;11.95;100.00
69153;BME280;56261;51.580;4.578;2023-03-23T05:22:48;100258.97;;;11.90;100.00
69153;BME280;56261;51.580;4.578;2023-03-23T05:25:15;100254.06;;;11.94;100.00
69153;BME280;56261;51.580;4.578;2023-03-23T05:27:44;100277.41;;;12.07;100.00
69153;BME280;56261;51.580;4.578;2023-03-23T05:30:14;100281.19;;;11.91;100.00
69153;BME280;56261;51.580;4.578;2023-03-23T05:32:43;100277.09;;;11.95;100.00
69153;BME280;56261;51.580;4.578;2023-03-23T05:35:11;100279.78;;;11.95;100.00
69153;BME280;56261;51.580;4.578;2023-03-23T05:37:37;100281.00;;;11.92;100.00
69153;BME280;56261;51.580;4.578;2023-03-23T05:40:04;100284.91;;;11.96;100.00
69153;BME280;56261;51.580;4.578;2023-03-23T05:42:34;100289.84;;;11.93;100.00
69153;BME280;56261;51.580;4.578;2023-03-23T05:45:02;100291.06;;;11.90;100.00
69153;BME280;56261;51.580;4.578;2023-03-23T05:47:28;100294.53;;;11.91;100.00
69153;BME280;56261;51.580;4.578;2023-03-23T05:49:54;100308.78;;;11.98;100.00
69153;BME280;56261;51.580;4.578;2023-03-23T05:52:20;100310.47;;;11.84;100.00
69153;BME280;56261;51.580;4.578;2023-03-23T05:54:45;100309.53;;;11.70;100.00
69153;BME280;56261;51.580;4.578;2023-03-23T05:57:11;100313.66;;;11.73;100.00
69153;BME280;56261;51.580;4.578;2023-03-23T05:59:36;100318.22;;;11.57;100.00
69153;BME280;56261;51.580;4.578;2023-03-23T06:02:03;100329.16;;;11.41;100.00
69153;BME280;56261;51.580;4.578;2023-03-23T06:04:28;100326.00;;;11.37;100.00
69153;BME280;56261;51.580;4.578;2023-03-23T06:06:54;100334.03;;;11.22;100.00
69153;BME280;56261;51.580;4.578;2023-03-23T06:09:19;100338.72;;;11.20;100.00
69153;BME280;56261;51.580;4.578;2023-03-23T06:11:45;100335.81;;;11.15;100.00
69153;BME280;56261;51.580;4.578;2023-03-23T06:14:10;100352.38;;;11.11;100.00
69153;BME280;56261;51.580;4.578;2023-03-23T06:16:36;100349.69;;;10.96;100.00
69153;BME280;56261;51.580;4.578;2023-03-23T06:19:02;100366.56;;;10.96;100.00
69153;BME280;56261;51.580;4.578;2023-03-23T06:21:30;100357.91;;;10.94;100.00
69153;BME280;56261;51.580;4.578;2023-03-23T06:23:55;100353.13;;;10.90;100.00
69153;BME280;56261;51.580;4.578;2023-03-23T06:26:30;100364.78;;;10.89;100.00
69153;BME280;56261;51.580;4.578;2023-03-23T06:28:56;100371.59;;;10.91;100.00
69153;BME280;56261;51.580;4.578;2023-03-23T06:31:23;100379.16;;;10.88;100.00
69153;BME280;56261;51.580;4.578;2023-03-23T06:33:49;100385.22;;;10.82;100.00
69153;BME280;56261;51.580;4.578;2023-03-23T06:36:15;100376.56;;;10.79;100.00
69153;BME280;56261;51.580;4.578;2023-03-23T06:38:41;100369.03;;;10.83;100.00
69153;BME280;56261;51.580;4.578;2023-03-23T06:41:07;100377.41;;;10.80;100.00
69153;BME280;56261;51.580;4.578;2023-03-23T06:43:33;100367.53;;;10.80;100.00
69153;BME280;56261;51.580;4.578;2023-03-23T06:46:00;100387.25;;;10.79;100.00
69153;BME280;56261;51.580;4.578;2023-03-23T06:48:26;100378.22;;;10.80;100.00
69153;BME280;56261;51.580;4.578;2023-03-23T06:50:52;100377.41;;;10.80;100.00
69153;BME280;56261;51.580;4.578;2023-03-23T06:53:17;100386.97;;;10.74;100.00
69153;BME280;56261;51.580;4.578;2023-03-23T06:55:45;100386.31;;;10.72;100.00
69153;BME280;56261;51.580;4.578;2023-03-23T06:58:11;100399.00;;;10.70;100.00
69153;BME280;56261;51.580;4.578;2023-03-23T07:00:36;100395.16;;;10.73;100.00
69153;BME280;56261;51.580;4.578;2023-03-23T07:03:02;100388.53;;;10.84;100.00
69153;BME280;56261;51.580;4.578;2023-03-23T07:05:28;100388.81;;;10.74;100.00
69153;BME280;56261;51.580;4.578;2023-03-23T07:07:53;100379.63;;;10.76;100.00
69153;BME280;56261;51.580;4.578;2023-03-23T07:10:19;100382.84;;;10.72;100.00
69153;BME280;56261;51.580;4.578;2023-03-23T07:12:45;100382.34;;;10.68;100.00
69153;BME280;56261;51.580;4.578;2023-03-23T07:15:11;100386.81;;;10.53;100.00
69153;BME280;56261;51.580;4.578;2023-03-23T07:17:38;100388.84;;;10.51;100.00
69153;BME280;56261;51.580;4.578;2023-03-23T07:20:04;100376.97;;;10.53;100.00
69153;BME280;56261;51.580;4.578;2023-03-23T07:22:30;100388.50;;;10.54;100.00
69153;BME280;56261;51.580;4.578;2023-03-23T07:24:56;100378.28;;;10.43;100.00
69153;BME280;56261;51.580;4.578;2023-03-23T07:27:21;100392.22;;;10.45;100.00
69153;BME280;56261;51.580;4.578;2023-03-23T07:29:46;100398.03;;;10.48;100.00
69153;BME280;56261;51.580;4.578;2023-03-23T07:32:12;100398.84;;;10.49;100.00
69153;BME280;56261;51.580;4.578;2023-03-23T07:34:38;100408.09;;;10.38;100.00
69153;BME280;56261;51.580;4.578;2023-03-23T07:37:04;100405.53;;;10.30;100.00
69153;BME280;56261;51.580;4.578;2023-03-23T07:39:29;100408.00;;;10.31;100.00
69153;BME280;56261;51.580;4.578;2023-03-23T07:41:55;100401.84;;;10.31;100.00
69153;BME280;56261;51.580;4.578;2023-03-23T07:44:20;100414.28;;;10.38;100.00
69153;BME280;56261;51.580;4.578;2023-03-23T07:46:46;100406.50;;;10.52;100.00
69153;BME280;56261;51.580;4.578;2023-03-23T07:49:12;100417.28;;;10.58;100.00
69153;BME280;56261;51.580;4.578;2023-03-23T07:51:37;100417.53;;;10.49;100.00
69153;BME280;56261;51.580;4.578;2023-03-23T07:54:06;100407.41;;;10.44;100.00
69153;BME280;56261;51.580;4.578;2023-03-23T07:56:36;100406.63;;;10.35;100.00
69153;BME280;56261;51.580;4.578;2023-03-23T07:59:02;100409.25;;;10.44;100.00
69153;BME280;56261;51.580;4.578;2023-03-23T08:01:28;100426.72;;;10.46;100.00
69153;BME280;56261;51.580;4.578;2023-03-23T08:03:54;100420.19;;;10.49;100.00
69153;BME280;56261;51.580;4.578;2023-03-23T08:06:22;100422.69;;;10.50;100.00
69153;BME280;56261;51.580;4.578;2023-03-23T08:08:48;100422.44;;;10.60;100.00
69153;BME280;56261;51.580;4.578;2023-03-23T08:11:15;100430.63;;;10.73;100.00
69153;BME280;56261;51.580;4.578;2023-03-23T08:13:41;100434.22;;;10.80;100.00
69153;BME280;56261;51.580;4.578;2023-03-23T08:16:08;100428.22;;;11.16;100.00
69153;BME280;56261;51.580;4.578;2023-03-23T08:18:35;100435.84;;;11.19;100.00
69153;BME280;56261;51.580;4.578;2023-03-23T08:21:02;100438.34;;;11.51;100.00
69153;BME280;56261;51.580;4.578;2023-03-23T08:23:30;100436.94;;;11.55;100.00
69153;BME280;56261;51.580;4.578;2023-03-23T08:25:55;100436.31;;;11.38;100.00
69153;BME280;56261;51.580;4.578;2023-03-23T08:28:21;100437.44;;;11.43;100.00
69153;BME280;56261;51.580;4.578;2023-03-23T08:30:46;100435.66;;;11.36;100.00
69153;BME280;56261;51.580;4.578;2023-03-23T08:33:12;100432.09;;;11.43;100.00
69153;BME280;56261;51.580;4.578;2023-03-23T08:35:39;100435.00;;;11.63;100.00
69153;BME280;56261;51.580;4.578;2023-03-23T08:38:04;100434.47;;;11.53;100.00
69153;BME280;56261;51.580;4.578;2023-03-23T08:40:30;100457.00;;;11.95;100.00
69153;BME280;56261;51.580;4.578;2023-03-23T08:42:55;100442.00;;;12.16;100.00
69153;BME280;56261;51.580;4.578;2023-03-23T08:45:23;100424.38;;;12.71;100.00
69153;BME280;56261;51.580;4.578;2023-03-23T08:47:49;100427.31;;;12.76;100.00
69153;BME280;56261;51.580;4.578;2023-03-23T08:50:20;100420.81;;;12.92;100.00
69153;BME280;56261;51.580;4.578;2023-03-23T08:52:46;100427.53;;;12.81;100.00
69153;BME280;56261;51.580;4.578;2023-03-23T08:55:12;100423.34;;;12.72;100.00
69153;BME280;56261;51.580;4.578;2023-03-23T08:57:38;100436.72;;;12.44;100.00
69153;BME280;56261;51.580;4.578;2023-03-23T09:00:06;100427.34;;;12.83;100.00
69153;BME280;56261;51.580;4.578;2023-03-23T09:02:52;100446.72;;;13.13;100.00
69153;BME280;56261;51.580;4.578;2023-03-23T09:05:20;100440.56;;;13.19;100.00
69153;BME280;56261;51.580;4.578;2023-03-23T09:07:50;100440.94;;;13.09;100.00
69153;BME280;56261;51.580;4.578;2023-03-23T09:10:17;100440.44;;;12.71;100.00
69153;BME280;56261;51.580;4.578;2023-03-23T09:12:44;100437.03;;;13.12;100.00
69153;BME280;56261;51.580;4.578;2023-03-23T09:15:11;100441.91;;;13.02;100.00
69153;BME280;56261;51.580;4.578;2023-03-23T09:17:48;100438.69;;;13.13;100.00
69153;BME280;56261;51.580;4.578;2023-03-23T09:20:18;100443.34;;;13.74;100.00
69153;BME280;56261;51.580;4.578;2023-03-23T09:22:47;100441.03;;;12.95;100.00
69153;BME280;56261;51.580;4.578;2023-03-23T09:25:15;100437.19;;;13.80;100.00
69153;BME280;56261;51.580;4.578;2023-03-23T09:27:42;100438.72;;;13.55;100.00
69153;BME280;56261;51.580;4.578;2023-03-23T09:30:11;100438.00;;;13.74;100.00
69153;BME280;56261;51.580;4.578;2023-03-23T09:32:38;100445.72;;;13.49;100.00
69153;BME280;56261;51.580;4.578;2023-03-23T09:35:06;100435.66;;;14.26;100.00
69153;BME280;56261;51.580;4.578;2023-03-23T09:37:34;100436.47;;;14.33;100.00
69153;BME280;56261;51.580;4.578;2023-03-23T09:40:02;100445.84;;;14.64;100.00
69153;BME280;56261;51.580;4.578;2023-03-23T09:50:25;100460.50;;;14.81;100.00
69153;BME280;56261;51.580;4.578;2023-03-23T09:53:00;100456.91;;;14.27;100.00
69153;BME280;56261;51.580;4.578;2023-03-23T09:55:28;100451.38;;;14.49;100.00
69153;BME280;56261;51.580;4.578;2023-03-23T09:58:26;100454.63;;;13.56;100.00
69153;BME280;56261;51.580;4.578;2023-03-23T10:01:15;100469.72;;;13.29;100.00
69153;BME280;56261;51.580;4.578;2023-03-23T10:03:44;100470.44;;;13.44;100.00
69153;BME280;56261;51.580;4.578;2023-03-23T10:06:14;100475.56;;;13.87;100.00
69153;BME280;56261;51.580;4.578;2023-03-23T10:08:46;100472.81;;;13.67;100.00
69153;BME280;56261;51.580;4.578;2023-03-23T10:16:30;100480.78;;;13.26;100.00
69153;BME280;56261;51.580;4.578;2023-03-23T10:18:58;100494.06;;;13.34;100.00
69153;BME280;56261;51.580;4.578;2023-03-23T10:21:27;100472.31;;;12.94;100.00
69153;BME280;56261;51.580;4.578;2023-03-23T10:24:03;100472.88;;;13.11;100.00
69153;BME280;56261;51.580;4.578;2023-03-23T10:31:46;100476.72;;;13.02;100.00
69153;BME280;56261;51.580;4.578;2023-03-23T10:34:20;100477.31;;;12.97;100.00
69153;BME280;56261;51.580;4.578;2023-03-23T10:37:03;100488.50;;;13.36;100.00
69153;BME280;56261;51.580;4.578;2023-03-23T10:39:49;100478.41;;;13.79;100.00
69153;BME280;56261;51.580;4.578;2023-03-23T10:42:26;100468.72;;;13.78;100.00
69153;BME280;56261;51.580;4.578;2023-03-23T10:44:53;100467.84;;;13.64;100.00
69153;BME280;56261;51.580;4.578;2023-03-23T10:47:20;100471.66;;;13.90;100.00
69153;BME280;56261;51.580;4.578;2023-03-23T10:49:56;100468.50;;;13.66;100.00
69153;BME280;56261;51.580;4.578;2023-03-23T10:52:33;100472.66;;;13.41;100.00
69153;BME280;56261;51.580;4.578;2023-03-23T10:57:33;100473.31;;;13.84;100.00
69153;BME280;56261;51.580;4.578;2023-03-23T11:02:41;100463.63;;;14.85;100.00
69153;BME280;56261;51.580;4.578;2023-03-23T11:05:38;100469.78;;;15.19;100.00
69153;BME280;56261;51.580;4.578;2023-03-23T11:08:12;100467.09;;;15.05;100.00
69153;BME280;56261;51.580;4.578;2023-03-23T11:10:41;100472.06;;;14.62;100.00
69153;BME280;56261;51.580;4.578;2023-03-23T11:13:15;100488.50;;;14.32;100.00
69153;BME280;56261;51.580;4.578;2023-03-23T11:15:43;100490.03;;;14.00;100.00
69153;BME280;56261;51.580;4.578;2023-03-23T11:20:44;100498.78;;;13.67;100.00
69153;BME280;56261;51.580;4.578;2023-03-23T11:23:33;100490.16;;;13.37;100.00
69153;BME280;56261;51.580;4.578;2023-03-23T11:31:50;100490.59;;;12.84;100.00
69153;BME280;56261;51.580;4.578;2023-03-23T11:36:51;100499.38;;;11.98;100.00
69153;BME280;56261;51.580;4.578;2023-03-23T11:39:25;100530.41;;;11.40;100.00
69153;BME280;56261;51.580;4.578;2023-03-23T11:41:52;100515.69;;;10.91;100.00
69153;BME280;56261;51.580;4.578;2023-03-23T11:44:17;100511.84;;;10.71;100.00
69153;BME280;56261;51.580;4.578;2023-03-23T11:49:50;100503.72;;;10.87;100.00
69153;BME280;56261;51.580;4.578;2023-03-23T11:54:56;100507.69;;;11.44;100.00
69153;BME280;56261;51.580;4.578;2023-03-23T11:57:23;100501.19;;;11.83;100.00
69153;BME280;56261;51.580;4.578;2023-03-23T11:59:49;100502.94;;;12.05;100.00
69153;BME280;56261;51.580;4.578;2023-03-23T12:02:35;100495.47;;;12.16;100.00
69153;BME280;56261;51.580;4.578;2023-03-23T12:08:16;100498.97;;;12.81;100.00
69153;BME280;56261;51.580;4.578;2023-03-23T12:19:14;100472.91;;;13.18;100.00
69153;BME280;56261;51.580;4.578;2023-03-23T12:32:41;100437.13;;;13.60;100.00
69153;BME280;56261;51.580;4.578;2023-03-23T12:38:20;100445.25;;;13.39;100.00
69153;BME280;56261;51.580;4.578;2023-03-23T12:41:15;100440.56;;;13.47;100.00
69153;BME280;56261;51.580;4.578;2023-03-23T12:46:39;100466.25;;;13.35;100.00
69153;BME280;56261;51.580;4.578;2023-03-23T12:51:49;100500.19;;;13.00;100.00
69153;BME280;56261;51.580;4.578;2023-03-23T13:02:34;100531.13;;;12.23;100.00
69153;BME280;56261;51.580;4.578;2023-03-23T13:05:09;100530.44;;;12.36;100.00
69153;BME280;56261;51.580;4.578;2023-03-23T13:07:43;100514.16;;;12.31;100.00
69153;BME280;56261;51.580;4.578;2023-03-23T13:10:25;100520.13;;;12.54;100.00
69153;BME280;56261;51.580;4.578;2023-03-23T13:12:53;100514.44;;;12.57;100.00
69153;BME280;56261;51.580;4.578;2023-03-23T13:15:43;100518.59;;;12.88;100.00
69153;BME280;56261;51.580;4.578;2023-03-23T13:23:22;100510.63;;;13.44;100.00
69153;BME280;56261;51.580;4.578;2023-03-23T13:26:01;100498.91;;;13.24;100.00
69153;BME280;56261;51.580;4.578;2023-03-23T13:28:30;100496.16;;;13.39;100.00
69153;BME280;56261;51.580;4.578;2023-03-23T13:31:10;100504.44;;;13.50;100.00
69153;BME280;56261;51.580;4.578;2023-03-23T13:33:37;100488.16;;;13.45;100.00
69153;BME280;56261;51.580;4.578;2023-03-23T13:36:14;100482.44;;;13.62;100.00
69153;BME280;56261;51.580;4.578;2023-03-23T13:38:49;100479.31;;;14.00;100.00
69153;BME280;56261;51.580;4.578;2023-03-23T13:41:17;100471.81;;;13.82;100.00
69153;BME280;56261;51.580;4.578;2023-03-23T13:43:43;100460.97;;;14.03;100.00
69153;BME280;56261;51.580;4.578;2023-03-23T13:49:17;100454.50;;;13.78;100.00
69153;BME280;56261;51.580;4.578;2023-03-23T14:01:56;100442.53;;;14.62;100.00
69153;BME280;56261;51.580;4.578;2023-03-23T14:04:41;100438.59;;;14.58;100.00
69153;BME280;56261;51.580;4.578;2023-03-23T14:07:11;100444.78;;;14.51;100.00
69153;BME280;56261;51.580;4.578;2023-03-23T14:09:42;100441.91;;;14.73;100.00
69153;BME280;56261;51.580;4.578;2023-03-23T14:12:21;100439.38;;;15.18;100.00
69153;BME280;56261;51.580;4.578;2023-03-23T14:14:56;100424.72;;;15.14;100.00
69153;BME280;56261;51.580;4.578;2023-03-23T14:17:28;100424.31;;;15.17;100.00
69153;BME280;56261;51.580;4.578;2023-03-23T14:19:57;100412.75;;;15.17;100.00
69153;BME280;56261;51.580;4.578;2023-03-23T14:22:24;100390.75;;;15.40;100.00
69153;BME280;56261;51.580;4.578;2023-03-23T14:24:50;100383.69;;;15.52;100.00
69153;BME280;56261;51.580;4.578;2023-03-23T14:27:19;100395.88;;;15.54;100.00
69153;BME280;56261;51.580;4.578;2023-03-23T14:29:45;100391.78;;;15.45;100.00
69153;BME280;56261;51.580;4.578;2023-03-23T14:32:15;100388.00;;;15.53;100.00
69153;BME280;56261;51.580;4.578;2023-03-23T14:34:42;100372.72;;;15.47;100.00
69153;BME280;56261;51.580;4.578;2023-03-23T14:37:13;100379.44;;;15.24;100.00
69153;BME280;56261;51.580;4.578;2023-03-23T14:39:39;100379.13;;;14.87;100.00
69153;BME280;56261;51.580;4.578;2023-03-23T14:42:19;100389.88;;;14.67;100.00
69153;BME280;56261;51.580;4.578;2023-03-23T14:44:48;100363.75;;;15.21;100.00
69153;BME280;56261;51.580;4.578;2023-03-23T14:47:24;100375.09;;;15.30;100.00
69153;BME280;56261;51.580;4.578;2023-03-23T14:49:55;100381.25;;;15.37;100.00
69153;BME280;56261;51.580;4.578;2023-03-23T14:52:23;100386.09;;;15.60;100.00